Time;durP1;ratioP1;P1;durP2;ratioP2;P2;SDS_P1;SDS_P2;PMS_P1;PMS_P2;Temp;Humidity;BMP_temperature;BMP_pressure;BME280_temperature;BME280_humidity;BME280_pressure;Samples;Min_cycle;Max_cycle;Signal;HPM_P1;HPM_P2
2024/03/03 00:00:04;;;;;;;3.20;1.30;;;;;;;1.89;100.00;100739.54;105447;1257;73946;-54
2024/03/03 00:02:32;;;;;;;4.30;1.30;;;;;;;1.90;100.00;100733.17;105719;1253;65799;-58
2024/03/03 00:05:00;;;;;;;3.80;1.40;;;;;;;1.92;100.00;100735.03;105595;1253;72733;-53
2024/03/03 00:07:28;;;;;;;3.80;1.40;;;;;;;1.94;100.00;100729.77;105510;1258;60537;-55
2024/03/03 00:09:56;;;;;;;2.70;1.40;;;;;;;1.91;100.00;100734.38;105543;1258;60442;-53
2024/03/03 00:12:24;;;;;;;2.80;1.10;;;;;;;1.93;100.00;100729.48;105831;1257;73899;-53
2024/03/03 00:14:51;;;;;;;4.90;1.30;;;;;;;1.92;100.00;100727.67;105639;1253;67073;-56
2024/03/03 00:17:19;;;;;;;6.50;1.80;;;;;;;1.92;100.00;100730.03;105545;1253;72620;-54
2024/03/03 00:19:47;;;;;;;6.00;1.30;;;;;;;1.94;100.00;100725.46;105399;1253;60428;-54
2024/03/03 00:22:15;;;;;;;4.70;1.80;;;;;;;1.95;100.00;100725.23;105618;1257;60530;-53
2024/03/03 00:24:43;;;;;;;5.90;1.20;;;;;;;1.94;100.00;100718.59;106136;1253;73907;-54
2024/03/03 00:27:12;;;;;;;3.70;1.30;;;;;;;1.96;100.00;100730.11;105664;1253;65966;-53
2024/03/03 00:29:40;;;;;;;3.50;1.70;;;;;;;1.98;100.00;100718.64;105577;1258;72751;-53
2024/03/03 00:32:08;;;;;;;3.10;1.40;;;;;;;1.99;100.00;100717.52;105585;1257;60464;-53
2024/03/03 00:34:36;;;;;;;3.60;1.70;;;;;;;2.00;100.00;100723.11;105586;1254;60472;-53
2024/03/03 00:37:04;;;;;;;3.50;1.40;;;;;;;2.01;100.00;100720.67;105589;1257;73914;-53
2024/03/03 00:39:32;;;;;;;2.90;1.30;;;;;;;1.98;100.00;100729.77;105439;1259;66988;-52
2024/03/03 00:42:00;;;;;;;5.80;1.80;;;;;;;1.98;100.00;100724.52;105632;1257;72876;-52
2024/03/03 00:44:28;;;;;;;4.30;1.70;;;;;;;1.99;100.00;100717.56;105758;1253;60461;-54
2024/03/03 00:46:56;;;;;;;3.70;1.60;;;;;;;2.00;100.00;100719.35;105705;1258;60311;-53
2024/03/03 00:49:24;;;;;;;3.00;1.60;;;;;;;1.99;100.00;100723.36;105592;1253;73911;-55
2024/03/03 00:51:51;;;;;;;3.90;1.50;;;;;;;1.98;100.00;100721.17;105220;1259;66942;-52
2024/03/03 00:54:19;;;;;;;2.50;1.40;;;;;;;1.97;100.00;100723.35;105718;1253;71768;-57
2024/03/03 00:56:48;;;;;;;2.80;1.60;;;;;;;1.96;100.00;100729.59;105560;1253;60542;-54
2024/03/03 00:59:16;;;;;;;6.20;2.00;;;;;;;1.93;100.00;100730.81;105476;1253;60515;-54
2024/03/03 01:01:44;;;;;;;4.10;2.10;;;;;;;1.94;100.00;100733.02;105575;1253;73887;-55
2024/03/03 01:04:12;;;;;;;3.90;2.00;;;;;;;1.94;100.00;100736.08;105843;1257;66002;-55
2024/03/03 01:06:40;;;;;;;6.10;2.10;;;;;;;1.92;100.00;100729.36;105557;1259;71426;-55
2024/03/03 01:09:08;;;;;;;3.70;2.00;;;;;;;1.92;100.00;100730.58;105552;1256;60463;-54
2024/03/03 01:11:38;;;;;;;3.70;2.00;;;;;;;1.92;100.00;100733.95;105668;1253;60569;-55
2024/03/03 01:14:06;;;;;;;4.00;2.10;;;;;;;1.93;100.00;100734.63;105605;1253;72635;-55
2024/03/03 01:16:33;;;;;;;4.20;2.20;;;;;;;1.93;100.00;100740.93;105514;1254;67652;-54
2024/03/03 01:19:01;;;;;;;5.70;2.40;;;;;;;1.95;100.00;100732.40;105617;1253;72723;-55
2024/03/03 01:21:30;;;;;;;4.40;2.30;;;;;;;1.96;100.00;100736.11;105781;1253;60428;-55
2024/03/03 01:23:58;;;;;;;3.90;1.90;;;;;;;1.94;100.00;100730.26;105926;1253;60420;-55
2024/03/03 01:26:25;;;;;;;3.50;2.00;;;;;;;1.93;100.00;100733.73;105592;1259;73906;-55
2024/03/03 01:28:53;;;;;;;7.80;2.40;;;;;;;1.95;100.00;100732.75;105620;1253;65498;-53
2024/03/03 01:37:23;;;;;;;4.60;2.30;;;;;;;2.01;100.00;100724.43;102369;1290;600449;-56
2024/03/03 01:39:53;;;;;;;3.70;1.80;;;;;;;1.98;100.00;100732.04;104861;1269;59231;-55
2024/03/03 01:42:20;;;;;;;4.10;2.20;;;;;;;1.98;100.00;100726.73;105005;1277;59318;-54
2024/03/03 01:44:48;;;;;;;3.30;2.20;;;;;;;1.98;100.00;100739.07;104928;1270;72208;-55
2024/03/03 01:47:16;;;;;;;6.40;2.10;;;;;;;1.99;100.00;100722.90;105196;1269;65672;-58
2024/03/03 01:49:47;;;;;;;3.70;2.40;;;;;;;2.00;100.00;100725.73;105501;1269;72728;-55
2024/03/03 01:52:14;;;;;;;5.60;2.40;;;;;;;1.99;100.00;100723.38;105569;1264;59317;-55
2024/03/03 01:54:42;;;;;;;4.40;2.30;;;;;;;1.98;100.00;100722.73;105805;1256;60063;-55
2024/03/03 01:57:13;;;;;;;4.50;2.20;;;;;;;1.98;100.00;100726.05;105808;1256;72292;-55
2024/03/03 01:59:41;;;;;;;5.30;2.50;;;;;;;1.95;100.00;100732.23;105734;1256;66954;-52
2024/03/03 02:02:09;;;;;;;4.00;2.00;;;;;;;1.93;100.00;100730.98;105646;1267;71433;-52
2024/03/03 02:04:37;;;;;;;3.40;2.30;;;;;;;1.92;100.00;100730.92;105661;1260;59618;-53
2024/03/03 02:07:05;;;;;;;3.40;1.90;;;;;;;1.91;100.00;100730.08;105776;1260;59816;-54
2024/03/03 02:09:33;;;;;;;3.80;1.70;;;;;;;1.91;100.00;100734.06;105722;1257;73013;-60
2024/03/03 02:12:00;;;;;;;4.60;2.10;;;;;;;1.91;100.00;100724.02;105484;1258;66469;-56
2024/03/03 02:14:28;;;;;;;4.40;2.30;;;;;;;1.90;100.00;100722.46;105744;1256;71973;-53
2024/03/03 02:16:56;;;;;;;3.30;1.90;;;;;;;1.90;100.00;100726.79;105802;1263;59762;-54
2024/03/03 02:19:24;;;;;;;4.20;2.00;;;;;;;1.89;100.00;100725.00;105737;1257;60645;-52
2024/03/03 02:21:52;;;;;;;3.70;1.60;;;;;;;1.87;100.00;100724.31;105941;1251;72602;-60
2024/03/03 02:24:20;;;;;;;4.30;1.80;;;;;;;1.85;100.00;100724.59;105756;1257;67170;-54
2024/03/03 02:26:48;;;;;;;6.50;1.80;;;;;;;1.84;100.00;100729.98;105857;1257;71266;-56
2024/03/03 02:29:16;;;;;;;3.70;1.30;;;;;;;1.84;100.00;100731.87;105866;1256;59738;-55
2024/03/03 02:31:43;;;;;;;5.30;1.70;;;;;;;1.86;100.00;100724.70;109322;1251;58745;-52
2024/03/03 02:34:11;;;;;;;3.10;1.60;;;;;;;1.87;100.00;100726.70;109382;1251;72294;-58
2024/03/03 02:36:38;;;;;;;5.00;1.30;;;;;;;1.87;100.00;100735.63;109425;1251;65648;-53
2024/03/03 02:39:06;;;;;;;2.90;1.60;;;;;;;1.87;100.00;100741.58;109435;1252;70496;-52
2024/03/03 02:41:34;;;;;;;2.20;1.10;;;;;;;1.90;100.00;100739.30;109482;1251;57968;-53
2024/03/03 02:44:01;;;;;;;2.80;1.40;;;;;;;1.92;100.00;100736.71;109466;1251;60087;-54
2024/03/03 02:46:29;;;;;;;2.70;1.20;;;;;;;1.92;100.00;100738.77;109443;1251;73962;-53
2024/03/03 02:48:56;;;;;;;3.50;1.30;;;;;;;1.92;100.00;100743.73;109412;1251;66871;-54
2024/03/03 02:51:26;;;;;;;3.60;1.50;;;;;;;1.93;100.00;100743.15;109445;1253;72751;-54
2024/03/03 02:53:54;;;;;;;2.00;1.10;;;;;;;1.92;100.00;100740.64;109421;1251;57771;-53
2024/03/03 02:56:22;;;;;;;2.50;1.20;;;;;;;1.90;100.00;100742.69;109452;1251;59985;-58
2024/03/03 02:58:49;;;;;;;2.90;1.50;;;;;;;1.89;100.00;100751.34;109439;1251;71773;-52
2024/03/03 03:01:17;;;;;;;2.90;1.30;;;;;;;1.91;100.00;100746.58;109342;1253;65771;-54
2024/03/03 03:03:45;;;;;;;3.50;1.20;;;;;;;1.92;100.00;100748.42;109358;1254;72619;-52
2024/03/03 03:06:12;;;;;;;2.60;1.30;;;;;;;1.91;100.00;100750.38;109494;1254;59242;-53
2024/03/03 03:08:40;;;;;;;2.10;1.20;;;;;;;1.90;100.00;100754.02;109356;1253;58775;-54
2024/03/03 03:11:07;;;;;;;3.70;1.50;;;;;;;1.89;100.00;100756.14;109358;1251;71893;-52
2024/03/03 03:13:35;;;;;;;4.00;1.90;;;;;;;1.90;100.00;100764.35;109465;1251;65631;-52
2024/03/03 03:16:07;;;;;;;3.30;1.70;;;;;;;1.89;100.00;100758.70;109416;1251;72749;-53
2024/03/03 03:18:35;;;;;;;4.30;1.60;;;;;;;1.89;100.00;100762.68;109324;1251;58075;-57
2024/03/03 03:21:06;;;;;;;3.20;1.50;;;;;;;1.87;100.00;100762.63;109460;1253;60058;-52
2024/03/03 03:23:34;;;;;;;3.50;1.40;;;;;;;1.87;100.00;100768.70;109490;1253;73009;-52
2024/03/03 03:26:01;;;;;;;3.10;1.60;;;;;;;1.87;100.00;100767.48;109436;1254;65893;-52
2024/03/03 03:28:29;;;;;;;3.70;1.30;;;;;;;1.88;100.00;100767.21;109398;1254;72713;-54
2024/03/03 03:30:57;;;;;;;4.40;1.80;;;;;;;1.85;100.00;100762.50;109481;1251;59324;-53
2024/03/03 03:33:25;;;;;;;3.60;1.30;;;;;;;1.81;100.00;100762.95;109420;1252;58792;-52
2024/03/03 03:35:52;;;;;;;3.40;1.40;;;;;;;1.78;100.00;100760.91;109470;1252;71829;-52
2024/03/03 03:38:20;;;;;;;4.80;1.60;;;;;;;1.75;100.00;100759.98;109442;1251;66927;-59
2024/03/03 03:40:48;;;;;;;3.70;1.60;;;;;;;1.73;100.00;100755.52;109408;1251;73329;-53
2024/03/03 03:43:15;;;;;;;3.80;1.70;;;;;;;1.70;100.00;100764.55;109406;1251;58022;-52
2024/03/03 03:45:43;;;;;;;4.50;1.30;;;;;;;1.68;100.00;100763.23;109459;1252;60081;-52
2024/03/03 03:48:10;;;;;;;2.50;1.20;;;;;;;1.65;100.00;100759.69;109388;1251;73512;-58
2024/03/03 03:50:38;;;;;;;3.00;1.40;;;;;;;1.63;100.00;100764.42;109455;1251;66958;-52
2024/03/03 03:53:07;;;;;;;2.50;1.40;;;;;;;1.61;100.00;100759.09;109455;1251;72847;-53
2024/03/03 03:55:34;;;;;;;2.80;1.30;;;;;;;1.59;100.00;100755.68;109426;1251;58039;-52
2024/03/03 03:58:03;;;;;;;4.60;1.40;;;;;;;1.57;100.00;100763.52;109466;1253;58766;-53
2024/03/03 04:00:30;;;;;;;4.90;1.60;;;;;;;1.54;100.00;100764.91;109440;1251;73131;-54
2024/03/03 04:02:58;;;;;;;3.20;1.30;;;;;;;1.52;100.00;100762.34;109490;1251;66902;-53
2024/03/03 04:05:26;;;;;;;3.30;1.70;;;;;;;1.48;100.00;100761.75;109445;1251;71838;-52
2024/03/03 04:07:53;;;;;;;3.60;1.50;;;;;;;1.47;100.00;100758.06;109447;1254;59335;-53
2024/03/03 04:10:21;;;;;;;4.90;2.00;;;;;;;1.45;100.00;100763.33;109397;1251;58807;-53
2024/03/03 04:12:49;;;;;;;4.10;1.90;;;;;;;1.42;100.00;100759.31;109461;1251;73202;-53
2024/03/03 04:15:17;;;;;;;3.20;1.80;;;;;;;1.39;100.00;100761.95;109485;1251;65627;-52
2024/03/03 04:17:46;;;;;;;4.60;2.20;;;;;;;1.39;100.00;100764.13;109492;1251;71448;-52
2024/03/03 04:20:15;;;;;;;3.90;1.80;;;;;;;1.40;100.00;100764.77;109374;1254;57993;-53
2024/03/03 04:22:42;;;;;;;2.90;1.40;;;;;;;1.39;100.00;100754.52;109274;1251;58794;-53
2024/03/03 04:25:10;;;;;;;3.60;2.00;;;;;;;1.39;100.00;100762.29;109496;1251;71852;-53
2024/03/03 04:27:38;;;;;;;3.40;1.90;;;;;;;1.37;100.00;100767.34;109507;1251;65628;-52
2024/03/03 04:30:09;;;;;;;3.30;1.90;;;;;;;1.38;100.00;100771.23;109507;1251;71762;-52
2024/03/03 04:32:37;;;;;;;4.10;2.10;;;;;;;1.39;100.00;100771.14;109465;1251;60337;-52
2024/03/03 04:35:05;;;;;;;3.50;1.70;;;;;;;1.41;100.00;100768.83;109511;1251;58781;-53
2024/03/03 04:37:32;;;;;;;2.80;1.60;;;;;;;1.42;100.00;100779.01;109511;1251;72888;-53
2024/03/03 04:40:00;;;;;;;3.30;1.70;;;;;;;1.44;100.00;100779.70;109528;1251;65609;-54
2024/03/03 04:42:28;;;;;;;3.60;1.70;;;;;;;1.44;100.00;100774.89;109463;1251;72694;-55
2024/03/03 04:44:56;;;;;;;5.80;1.90;;;;;;;1.45;100.00;100776.52;109503;1251;59251;-54
2024/03/03 04:47:23;;;;;;;3.80;1.40;;;;;;;1.49;100.00;100777.65;109512;1251;58818;-52
2024/03/03 04:49:51;;;;;;;3.60;1.70;;;;;;;1.49;100.00;100782.23;109528;1251;73148;-53
2024/03/03 04:52:18;;;;;;;3.00;1.60;;;;;;;1.51;100.00;100784.19;109551;1251;67357;-53
2024/03/03 04:54:46;;;;;;;2.80;1.50;;;;;;;1.51;100.00;100785.85;109429;1251;72729;-52
2024/03/03 04:57:14;;;;;;;2.90;1.30;;;;;;;1.53;100.00;100788.52;109498;1251;58029;-52
2024/03/03 04:59:41;;;;;;;4.70;1.70;;;;;;;1.55;100.00;100789.04;109502;1251;58806;-53
2024/03/03 05:02:10;;;;;;;2.60;1.40;;;;;;;1.57;100.00;100786.60;109503;1251;73278;-53
2024/03/03 05:04:38;;;;;;;3.80;1.20;;;;;;;1.60;100.00;100785.19;109484;1251;65927;-53
2024/03/03 05:07:05;;;;;;;3.70;1.40;;;;;;;1.61;100.00;100788.88;109551;1251;72770;-53
2024/03/03 05:09:33;;;;;;;3.20;1.70;;;;;;;1.62;100.00;100791.02;109461;1251;58038;-53
2024/03/03 05:12:01;;;;;;;4.20;1.30;;;;;;;1.65;100.00;100785.85;109520;1251;58752;-54
2024/03/03 05:14:28;;;;;;;2.90;1.60;;;;;;;1.68;100.00;100785.77;109474;1251;72999;-58
2024/03/03 05:16:56;;;;;;;3.30;1.30;;;;;;;1.69;100.00;100785.37;109453;1251;66968;-53
2024/03/03 05:19:24;;;;;;;5.10;1.50;;;;;;;1.70;100.00;100787.89;109456;1251;71729;-53
2024/03/03 05:21:52;;;;;;;4.10;1.60;;;;;;;1.71;100.00;100792.14;109504;1251;58084;-54
2024/03/03 05:24:21;;;;;;;4.60;1.50;;;;;;;1.73;100.00;100792.50;109485;1251;58126;-54
2024/03/03 05:26:51;;;;;;;3.50;1.20;;;;;;;1.74;100.00;100797.20;109499;1251;71847;-57
2024/03/03 05:29:19;;;;;;;6.60;1.30;;;;;;;1.75;100.00;100798.37;109559;1251;66909;-54
2024/03/03 05:31:47;;;;;;;3.40;1.20;;;;;;;1.76;100.00;100801.40;109515;1251;72698;-53
2024/03/03 05:34:15;;;;;;;5.50;0.90;;;;;;;1.76;100.00;100800.84;109512;1251;59309;-53
2024/03/03 05:36:43;;;;;;;3.10;1.30;;;;;;;1.77;100.00;100807.28;109442;1251;61048;-54
2024/03/03 05:39:11;;;;;;;2.10;0.80;;;;;;;1.77;100.00;100798.03;109510;1251;73059;-53
2024/03/03 05:41:39;;;;;;;4.40;0.90;;;;;;;1.78;100.00;100798.63;109527;1251;65627;-53
2024/03/03 05:44:07;;;;;;;6.90;1.20;;;;;;;1.80;100.00;100804.00;109438;1253;72706;-53
2024/03/03 05:46:38;;;;;;;2.70;1.10;;;;;;;1.80;100.00;100802.25;109432;1253;59335;-53
2024/03/03 05:49:06;;;;;;;4.70;1.20;;;;;;;1.81;100.00;100796.88;109451;1253;59152;-53
2024/03/03 05:51:33;;;;;;;3.70;1.30;;;;;;;1.83;100.00;100803.76;109466;1251;73898;-54
2024/03/03 05:54:01;;;;;;;2.70;1.00;;;;;;;1.84;100.00;100808.67;109569;1251;67195;-54
2024/03/03 05:56:29;;;;;;;5.20;2.00;;;;;;;1.85;100.00;100797.61;109424;1251;72750;-58
2024/03/03 05:58:56;;;;;;;2.20;1.00;;;;;;;1.89;100.00;100806.23;109399;1251;59286;-55
2024/03/03 06:01:24;;;;;;;6.30;1.30;;;;;;;1.94;100.00;100806.38;109443;1251;58818;-55
2024/03/03 06:03:52;;;;;;;3.10;1.30;;;;;;;1.98;100.00;100803.19;109438;1251;72671;-54
2024/03/03 06:06:19;;;;;;;2.40;1.20;;;;;;;2.00;100.00;100807.46;109408;1253;64968;-54
2024/03/03 06:08:50;;;;;;;2.70;1.30;;;;;;;2.03;100.00;100803.09;109476;1251;72777;-56
2024/03/03 06:11:20;;;;;;;3.80;1.50;;;;;;;2.07;100.00;100809.02;109411;1253;59320;-53
2024/03/03 06:13:48;;;;;;;5.60;1.70;;;;;;;2.05;100.00;100811.87;109477;1251;58239;-53
2024/03/03 06:16:16;;;;;;;3.60;1.60;;;;;;;2.11;100.00;100810.60;109447;1253;74390;-53
2024/03/03 06:18:43;;;;;;;4.70;1.60;;;;;;;2.13;100.00;100809.91;109484;1251;66962;-54
2024/03/03 06:21:11;;;;;;;3.70;1.70;;;;;;;2.16;100.00;100815.67;109476;1251;71739;-54
2024/03/03 06:23:39;;;;;;;3.90;1.40;;;;;;;2.18;100.00;100810.36;109438;1251;58133;-54
2024/03/03 06:26:06;;;;;;;3.00;1.50;;;;;;;2.19;100.00;100809.61;109451;1251;58901;-55
2024/03/03 06:28:34;;;;;;;2.70;1.40;;;;;;;2.22;100.00;100812.20;109474;1251;72854;-54
2024/03/03 06:31:02;;;;;;;2.80;1.30;;;;;;;2.23;100.00;100812.07;109441;1251;67365;-54
2024/03/03 06:33:30;;;;;;;3.50;1.50;;;;;;;2.25;100.00;100812.42;109435;1252;72681;-54
2024/03/03 06:35:58;;;;;;;4.50;1.70;;;;;;;2.28;100.00;100817.06;109370;1252;58108;-54
2024/03/03 06:38:25;;;;;;;4.30;1.50;;;;;;;2.30;100.00;100816.36;109428;1251;58816;-55
2024/03/03 06:40:53;;;;;;;6.20;1.70;;;;;;;2.32;100.00;100813.77;109449;1252;73985;-55
2024/03/03 06:43:20;;;;;;;3.80;1.50;;;;;;;2.37;100.00;100820.81;109445;1251;66647;-54
2024/03/03 06:45:48;;;;;;;3.50;1.30;;;;;;;2.39;100.00;100825.26;109454;1253;72691;-54
2024/03/03 06:48:16;;;;;;;6.20;1.60;;;;;;;2.41;100.00;100820.79;109458;1251;59293;-54
2024/03/03 06:50:43;;;;;;;4.40;1.50;;;;;;;2.43;100.00;100820.17;109394;1253;58830;-57
2024/03/03 06:53:11;;;;;;;5.50;2.20;;;;;;;2.43;100.00;100825.62;109474;1253;73743;-54
2024/03/03 06:55:38;;;;;;;4.10;1.60;;;;;;;2.44;100.00;100826.76;109486;1253;65840;-54
2024/03/03 06:58:07;;;;;;;4.50;1.70;;;;;;;2.44;100.00;100814.62;109431;1251;72747;-55
2024/03/03 07:00:34;;;;;;;5.60;1.30;;;;;;;2.44;100.00;100826.11;109417;1252;59998;-55
2024/03/03 07:05:36;;;;;;;4.30;1.50;;;;;;;2.46;100.00;100822.38;109495;1251;72617;-54
2024/03/03 07:08:04;;;;;;;3.60;1.60;;;;;;;2.48;100.00;100824.07;109440;1251;66906;-55
2024/03/03 07:10:34;;;;;;;7.20;1.90;;;;;;;2.51;100.00;100819.19;109446;1252;71418;-55
2024/03/03 07:13:02;;;;;;;5.00;1.50;;;;;;;2.56;100.00;100808.02;109423;1253;59392;-55
2024/03/03 07:15:30;;;;;;;4.40;1.80;;;;;;;2.60;100.00;100811.83;109415;1250;60870;-53
2024/03/03 07:17:59;;;;;;;3.60;1.40;;;;;;;2.61;100.00;100820.67;109518;1253;72537;-54
2024/03/03 07:20:27;;;;;;;2.60;1.20;;;;;;;2.64;100.00;100822.33;109449;1252;67582;-54
2024/03/03 07:22:55;;;;;;;3.40;1.30;;;;;;;2.65;100.00;100813.86;109407;1252;71866;-55
2024/03/03 07:25:22;;;;;;;3.90;1.40;;;;;;;2.68;100.00;100820.46;109441;1251;58108;-55
2024/03/03 07:27:50;;;;;;;4.30;1.20;;;;;;;2.73;100.00;100817.35;109491;1251;60124;-54
2024/03/03 07:30:18;;;;;;;4.90;1.20;;;;;;;2.81;100.00;100819.31;109549;1251;73908;-54
2024/03/03 07:32:49;;;;;;;4.00;1.90;;;;;;;2.89;100.00;100815.06;109604;1251;67426;-54
2024/03/03 07:35:17;;;;;;;3.10;1.40;;;;;;;2.99;100.00;100814.34;109433;1251;71428;-58
2024/03/03 07:37:45;;;;;;;5.30;1.20;;;;;;;3.07;100.00;100811.73;109505;1251;58460;-54
2024/03/03 07:40:12;;;;;;;3.40;1.60;;;;;;;3.16;100.00;100810.88;109519;1251;58817;-55
2024/03/03 07:42:41;;;;;;;3.00;1.20;;;;;;;3.27;100.00;100812.81;109519;1251;73868;-55
2024/03/03 07:45:09;;;;;;;3.30;1.30;;;;;;;3.33;100.00;100812.63;109545;1251;66760;-54
2024/03/03 07:47:37;;;;;;;4.30;1.70;;;;;;;3.37;100.00;100817.27;109534;1251;73184;-54
2024/03/03 07:50:06;;;;;;;4.60;1.50;;;;;;;3.45;100.00;100819.27;109495;1251;58115;-55
2024/03/03 07:52:33;;;;;;;10.60;1.90;;;;;;;3.49;100.00;100814.77;109478;1251;59253;-55
2024/03/03 07:55:01;;;;;;;4.60;1.70;;;;;;;3.55;100.00;100808.60;109486;1250;72946;-55
2024/03/03 07:57:29;;;;;;;3.80;1.80;;;;;;;3.61;100.00;100806.23;109497;1253;66960;-54
2024/03/03 07:59:57;;;;;;;5.80;2.10;;;;;;;3.68;100.00;100809.27;109478;1251;72898;-54
2024/03/03 08:02:25;;;;;;;6.40;2.00;;;;;;;3.76;100.00;100808.13;109451;1251;58281;-54
2024/03/03 08:04:54;;;;;;;4.70;1.40;;;;;;;3.88;100.00;100809.23;109482;1251;58796;-55
2024/03/03 08:07:22;;;;;;;3.30;1.30;;;;;;;3.99;100.00;100809.36;109492;1250;73910;-58
2024/03/03 08:09:51;;;;;;;5.40;1.20;;;;;;;4.06;100.00;100812.86;109509;1251;67484;-54
2024/03/03 08:12:19;;;;;;;3.80;1.40;;;;;;;4.06;100.00;100812.04;109463;1251;72721;-55
2024/03/03 08:14:47;;;;;;;4.70;1.50;;;;;;;4.10;100.00;100816.80;109491;1251;58191;-55
2024/03/03 08:17:14;;;;;;;5.30;1.70;;;;;;;4.12;100.00;100816.83;109503;1251;58786;-53
2024/03/03 08:19:42;;;;;;;5.50;1.60;;;;;;;4.18;100.00;100820.50;109422;1251;73903;-55
2024/03/03 08:22:09;;;;;;;5.90;1.80;;;;;;;4.22;100.00;100826.02;109498;1251;67131;-54
2024/03/03 08:24:37;;;;;;;3.80;1.20;;;;;;;4.25;100.00;100818.34;109420;1251;71346;-54
2024/03/03 08:27:05;;;;;;;5.50;1.50;;;;;;;4.27;100.00;100809.95;109463;1252;58183;-54
2024/03/03 08:29:32;;;;;;;10.20;1.20;;;;;;;4.34;99.69;100811.94;109415;1252;59081;-54
2024/03/03 08:32:00;;;;;;;6.20;1.40;;;;;;;4.42;96.02;100807.09;109325;1252;73927;-54
2024/03/03 08:34:32;;;;;;;9.80;2.10;;;;;;;4.53;98.51;100805.13;109464;1252;66941;-54
2024/03/03 08:37:00;;;;;;;4.30;1.60;;;;;;;4.64;100.00;100807.30;109426;1253;72719;-54
2024/03/03 08:39:28;;;;;;;5.80;1.50;;;;;;;4.68;99.06;100804.21;109427;1252;61658;-55
2024/03/03 08:41:55;;;;;;;3.80;1.00;;;;;;;4.71;97.30;100797.24;109358;1253;59826;-54
2024/03/03 08:44:23;;;;;;;4.10;1.30;;;;;;;4.73;95.60;100799.99;109459;1252;73807;-55
2024/03/03 08:46:51;;;;;;;6.30;1.00;;;;;;;4.77;93.53;100802.05;109435;1254;69140;-55
2024/03/03 08:49:19;;;;;;;6.90;2.00;;;;;;;4.81;89.61;100807.60;109421;1252;71134;-54
2024/03/03 08:51:47;;;;;;;7.60;2.10;;;;;;;4.84;89.15;100807.52;109403;1252;58744;-55
2024/03/03 08:54:15;;;;;;;7.70;1.70;;;;;;;4.92;86.06;100806.95;109414;1253;60054;-55
2024/03/03 08:56:43;;;;;;;9.80;1.80;;;;;;;5.00;82.27;100806.15;109457;1253;72702;-53
2024/03/03 08:59:11;;;;;;;5.70;1.90;;;;;;;5.02;80.29;100804.77;109409;1252;65727;-54
2024/03/03 09:01:39;;;;;;;5.20;1.50;;;;;;;5.03;79.31;100801.23;109399;1253;72751;-54
2024/03/03 09:04:07;;;;;;;4.70;1.80;;;;;;;5.07;77.71;100804.31;109405;1253;58256;-54
2024/03/03 09:06:40;;;;;;;4.80;1.70;;;;;;;5.09;76.16;100788.21;109445;1252;60484;-54
2024/03/03 09:09:11;;;;;;;5.80;1.30;;;;;;;5.13;78.25;100784.44;109474;1252;75916;-54
2024/03/03 09:11:38;;;;;;;6.10;2.00;;;;;;;5.20;79.43;100785.25;109394;1253;66090;-53
2024/03/03 09:14:06;;;;;;;5.20;1.50;;;;;;;5.23;77.39;100788.94;109432;1252;72781;-54
2024/03/03 09:16:33;;;;;;;7.10;1.70;;;;;;;5.25;75.42;100780.80;109392;1251;58407;-54
2024/03/03 09:19:01;;;;;;;4.40;1.60;;;;;;;5.26;76.64;100780.93;109427;1251;58812;-54
2024/03/03 09:21:29;;;;;;;3.50;1.40;;;;;;;5.30;76.23;100778.19;109483;1251;73914;-54
2024/03/03 09:23:56;;;;;;;4.10;1.60;;;;;;;5.33;74.92;100781.63;109400;1251;68868;-55
2024/03/03 09:26:24;;;;;;;5.30;2.20;;;;;;;5.32;73.65;100773.45;109405;1251;75231;-54
2024/03/03 09:28:52;;;;;;;3.40;1.40;;;;;;;5.30;73.20;100778.15;109471;1251;62093;-54
2024/03/03 09:31:19;;;;;;;7.80;2.40;;;;;;;5.28;73.09;100776.48;109529;1251;60198;-54
2024/03/03 09:33:47;;;;;;;5.30;1.70;;;;;;;5.26;73.15;100779.70;109400;1251;74944;-54
2024/03/03 09:36:15;;;;;;;7.80;1.60;;;;;;;5.25;72.59;100775.70;109469;1251;67436;-55
2024/03/03 09:38:42;;;;;;;6.00;2.20;;;;;;;5.23;71.68;100778.60;109431;1251;74841;-54
2024/03/03 09:41:10;;;;;;;6.20;1.40;;;;;;;5.21;70.43;100770.18;109465;1251;59291;-53
2024/03/03 09:43:38;;;;;;;6.00;2.40;;;;;;;5.20;70.79;100770.45;109316;1251;58786;-58
2024/03/03 09:46:06;;;;;;;6.20;2.50;;;;;;;5.23;73.05;100772.45;109448;1251;72231;-54
2024/03/03 09:48:36;;;;;;;4.80;2.30;;;;;;;5.29;72.42;100764.75;109519;1251;67079;-54
2024/03/03 09:51:04;;;;;;;4.60;1.80;;;;;;;5.32;71.97;100766.90;109424;1251;72743;-54
2024/03/03 09:53:32;;;;;;;6.00;3.50;;;;;;;5.38;71.26;100761.56;109390;1251;61397;-55
2024/03/03 09:56:01;;;;;;;8.30;2.90;;;;;;;5.44;71.41;100766.02;109489;1251;58823;-55
2024/03/03 09:58:28;;;;;;;6.50;1.90;;;;;;;5.50;68.80;100758.63;109506;1251;76921;-54
2024/03/03 10:00:56;;;;;;;7.40;1.60;;;;;;;5.52;67.10;100767.73;109469;1251;65691;-54
2024/03/03 10:03:24;;;;;;;6.20;1.90;;;;;;;5.51;66.86;100752.46;109300;1251;71141;-54
2024/03/03 10:05:52;;;;;;;4.10;1.90;;;;;;;5.58;66.92;100761.84;109295;1251;59554;-57
2024/03/03 10:08:21;;;;;;;6.70;2.90;;;;;;;5.70;67.63;100747.89;109287;1251;60294;-54
2024/03/03 10:10:49;;;;;;;15.50;3.60;;;;;;;5.87;66.99;100747.70;109328;1251;73930;-54
2024/03/03 10:13:20;;;;;;;5.80;2.30;;;;;;;6.00;62.89;100754.95;109460;1251;68768;-55
2024/03/03 10:15:48;;;;;;;7.90;2.70;;;;;;;6.01;61.96;100751.02;109427;1251;75424;-54
2024/03/03 10:18:16;;;;;;;6.20;2.40;;;;;;;6.10;61.50;100742.15;109362;1254;61416;-55
2024/03/03 10:20:48;;;;;;;4.20;1.70;;;;;;;6.23;59.01;100744.39;109461;1251;62082;-54
2024/03/03 10:23:22;;;;;;;4.40;1.60;;;;;;;6.29;58.20;100748.30;109482;1251;76093;-54
2024/03/03 10:25:54;;;;;;;4.70;2.30;;;;;;;6.41;57.71;100740.16;109395;1251;68888;-55
2024/03/03 10:28:21;;;;;;;12.10;3.10;;;;;;;6.51;56.98;100734.11;109441;1251;74042;-55
2024/03/03 10:30:50;;;;;;;8.50;2.20;;;;;;;6.58;55.94;100736.23;109449;1252;60381;-55
2024/03/03 10:33:19;;;;;;;3.90;1.40;;;;;;;6.62;54.86;100728.13;109516;1251;62320;-54
2024/03/03 10:35:57;;;;;;;8.70;3.00;;;;;;;6.65;54.32;100719.36;109423;1251;75373;-55
2024/03/03 10:38:24;;;;;;;15.80;5.70;;;;;;;6.69;53.92;100722.99;109342;1251;65782;-55
2024/03/03 10:40:52;;;;;;;6.60;2.30;;;;;;;6.74;54.18;100723.18;109230;1252;76206;-54
2024/03/03 10:43:20;;;;;;;12.70;7.40;;;;;;;6.85;53.29;100717.16;109403;1251;61347;-59
2024/03/03 10:45:48;;;;;;;23.00;9.50;;;;;;;6.92;52.54;100713.98;109489;1251;60052;-54
2024/03/03 10:48:16;;;;;;;10.50;5.90;;;;;;;6.94;52.35;100710.22;109455;1251;75962;-54
2024/03/03 10:50:45;;;;;;;17.60;9.80;;;;;;;6.95;52.70;100712.71;109507;1251;67445;-54
2024/03/03 10:53:13;;;;;;;5.90;2.80;;;;;;;7.01;52.17;100711.94;109390;1251;74322;-57
2024/03/03 10:55:40;;;;;;;7.00;1.60;;;;;;;7.02;51.43;100711.27;109317;1252;60287;-54
2024/03/03 10:58:08;;;;;;;20.20;11.10;;;;;;;7.02;51.61;100704.53;109347;1251;62406;-54
2024/03/03 11:00:36;;;;;;;16.10;8.00;;;;;;;7.06;51.18;100706.38;109498;1250;75949;-55
2024/03/03 11:03:04;;;;;;;12.70;6.90;;;;;;;7.09;51.18;100691.52;109435;1251;68947;-55
2024/03/03 11:05:32;;;;;;;15.00;6.60;;;;;;;7.12;51.26;100690.80;109380;1253;75355;-58
2024/03/03 11:07:59;;;;;;;22.10;11.90;;;;;;;7.18;51.18;100683.34;109460;1251;61366;-54
2024/03/03 11:10:27;;;;;;;18.60;9.60;;;;;;;7.27;51.05;100691.95;109405;1254;61125;-53
2024/03/03 11:12:55;;;;;;;26.80;12.70;;;;;;;7.36;50.53;100684.17;109482;1253;75616;-54
2024/03/03 11:15:23;;;;;;;16.70;7.70;;;;;;;7.42;50.33;100686.98;109362;1252;68247;-55
2024/03/03 11:18:01;;;;;;;12.00;6.40;;;;;;;7.49;49.63;100693.73;109396;1251;75791;-55
2024/03/03 11:20:35;;;;;;;7.80;3.70;;;;;;;7.54;49.28;100683.48;109458;1251;61357;-53
2024/03/03 11:23:16;;;;;;;15.70;8.10;;;;;;;7.57;48.97;100682.54;109471;1251;60467;-53
2024/03/03 11:25:59;;;;;;;24.80;13.10;;;;;;;7.62;49.25;100673.23;109469;1251;73847;-55
2024/03/03 11:28:28;;;;;;;29.50;16.60;;;;;;;7.76;49.14;100683.13;109374;1251;68663;-54
2024/03/03 11:30:56;;;;;;;16.90;9.00;;;;;;;7.82;48.34;100668.98;109510;1251;74914;-58